sensor_id;sensor_type;location;lat;lon;timestamp;temperature;humidity
55634;DHT22;41504;53.162;6.788;2022-11-11T00:01:55;11.90;87.10
55634;DHT22;41504;53.162;6.788;2022-11-11T00:12:48;11.80;87.10
55634;DHT22;41504;53.162;6.788;2022-11-11T00:15:51;11.90;87.10
55634;DHT22;41504;53.162;6.788;2022-11-11T00:18:55;11.90;87.00
55634;DHT22;41504;53.162;6.788;2022-11-11T00:22:44;11.90;87.10
55634;DHT22;41504;53.162;6.788;2022-11-11T00:36:36;11.90;87.40
55634;DHT22;41504;53.162;6.788;2022-11-11T00:39:12;11.90;87.50
55634;DHT22;41504;53.162;6.788;2022-11-11T00:49:14;11.60;87.60
55634;DHT22;41504;53.162;6.788;2022-11-11T00:52:01;11.80;87.70
55634;DHT22;41504;53.162;6.788;2022-11-11T00:54:32;11.90;87.80
55634;DHT22;41504;53.162;6.788;2022-11-11T00:59:37;11.90;87.90
55634;DHT22;41504;53.162;6.788;2022-11-11T01:02:13;11.80;87.90
55634;DHT22;41504;53.162;6.788;2022-11-11T01:04:53;11.90;88.00
55634;DHT22;41504;53.162;6.788;2022-11-11T01:07:21;11.50;87.90
55634;DHT22;41504;53.162;6.788;2022-11-11T01:09:55;11.90;88.20
55634;DHT22;41504;53.162;6.788;2022-11-11T01:12:21;11.90;88.20
55634;DHT22;41504;53.162;6.788;2022-11-11T01:14:59;11.90;88.10
55634;DHT22;41504;53.162;6.788;2022-11-11T01:17:34;11.90;88.10
55634;DHT22;41504;53.162;6.788;2022-11-11T01:20:10;11.90;88.40
55634;DHT22;41504;53.162;6.788;2022-11-11T01:22:45;11.90;88.30
55634;DHT22;41504;53.162;6.788;2022-11-11T01:25:13;11.90;88.30
55634;DHT22;41504;53.162;6.788;2022-11-11T01:27:42;11.90;88.40
55634;DHT22;41504;53.162;6.788;2022-11-11T01:30:11;11.90;88.20
55634;DHT22;41504;53.162;6.788;2022-11-11T01:32:41;11.90;88.30
55634;DHT22;41504;53.162;6.788;2022-11-11T01:35:13;11.90;88.50
55634;DHT22;41504;53.162;6.788;2022-11-11T01:37:45;11.90;88.50
55634;DHT22;41504;53.162;6.788;2022-11-11T01:40:11;11.90;88.50
55634;DHT22;41504;53.162;6.788;2022-11-11T01:42:53;11.90;88.50
55634;DHT22;41504;53.162;6.788;2022-11-11T01:46:00;11.90;88.40
55634;DHT22;41504;53.162;6.788;2022-11-11T01:48:39;11.90;88.40
55634;DHT22;41504;53.162;6.788;2022-11-11T01:51:45;12.00;88.40
55634;DHT22;41504;53.162;6.788;2022-11-11T01:54:49;11.90;88.30
55634;DHT22;41504;53.162;6.788;2022-11-11T02:00:03;11.90;88.60
55634;DHT22;41504;53.162;6.788;2022-11-11T02:02:36;11.90;88.70
55634;DHT22;41504;53.162;6.788;2022-11-11T02:05:14;11.70;88.60
55634;DHT22;41504;53.162;6.788;2022-11-11T02:08:06;11.90;88.80
55634;DHT22;41504;53.162;6.788;2022-11-11T02:10:54;11.80;88.90
55634;DHT22;41504;53.162;6.788;2022-11-11T02:13:22;11.90;88.90
55634;DHT22;41504;53.162;6.788;2022-11-11T02:16:07;11.90;88.90
55634;DHT22;41504;53.162;6.788;2022-11-11T02:18:56;11.70;88.90
55634;DHT22;41504;53.162;6.788;2022-11-11T02:21:46;11.90;88.70
55634;DHT22;41504;53.162;6.788;2022-11-11T02:24:17;11.90;88.60
55634;DHT22;41504;53.162;6.788;2022-11-11T02:26:44;11.90;88.70
55634;DHT22;41504;53.162;6.788;2022-11-11T02:29:20;11.90;88.70
55634;DHT22;41504;53.162;6.788;2022-11-11T02:31:50;11.70;88.70
55634;DHT22;41504;53.162;6.788;2022-11-11T02:34:16;11.90;88.50
55634;DHT22;41504;53.162;6.788;2022-11-11T02:36:42;11.80;88.60
55634;DHT22;41504;53.162;6.788;2022-11-11T02:39:10;11.70;88.50
55634;DHT22;41504;53.162;6.788;2022-11-11T02:41:46;11.80;88.70
55634;DHT22;41504;53.162;6.788;2022-11-11T02:44:31;11.80;88.80
55634;DHT22;41504;53.162;6.788;2022-11-11T02:46:57;11.80;88.90
55634;DHT22;41504;53.162;6.788;2022-11-11T02:49:23;11.90;89.30
55634;DHT22;41504;53.162;6.788;2022-11-11T02:51:55;11.70;88.90
55634;DHT22;41504;53.162;6.788;2022-11-11T02:54:23;11.70;88.70
55634;DHT22;41504;53.162;6.788;2022-11-11T02:56:49;11.70;88.80
55634;DHT22;41504;53.162;6.788;2022-11-11T02:59:44;11.70;88.90
55634;DHT22;41504;53.162;6.788;2022-11-11T03:02:10;11.50;88.90
55634;DHT22;41504;53.162;6.788;2022-11-11T03:04:51;11.60;89.00
55634;DHT22;41504;53.162;6.788;2022-11-11T03:07:23;11.60;88.80
55634;DHT22;41504;53.162;6.788;2022-11-11T03:12:32;11.50;89.30
55634;DHT22;41504;53.162;6.788;2022-11-11T03:14:59;11.50;89.00
55634;DHT22;41504;53.162;6.788;2022-11-11T03:17:30;11.50;89.30
55634;DHT22;41504;53.162;6.788;2022-11-11T03:20:18;11.40;89.30
55634;DHT22;41504;53.162;6.788;2022-11-11T03:23:12;11.10;89.30
55634;DHT22;41504;53.162;6.788;2022-11-11T03:25:44;11.40;89.70
55634;DHT22;41504;53.162;6.788;2022-11-11T03:28:15;11.40;89.80
55634;DHT22;41504;53.162;6.788;2022-11-11T03:30:48;11.40;89.70
55634;DHT22;41504;53.162;6.788;2022-11-11T03:33:18;11.30;89.90
55634;DHT22;41504;53.162;6.788;2022-11-11T03:35:56;11.50;90.00
55634;DHT22;41504;53.162;6.788;2022-11-11T03:38:22;11.30;90.00
55634;DHT22;41504;53.162;6.788;2022-11-11T03:40:55;11.20;90.00
55634;DHT22;41504;53.162;6.788;2022-11-11T03:43:27;11.30;90.10
55634;DHT22;41504;53.162;6.788;2022-11-11T03:46:04;11.30;90.40
55634;DHT22;41504;53.162;6.788;2022-11-11T03:48:32;11.30;90.20
55634;DHT22;41504;53.162;6.788;2022-11-11T03:51:25;11.40;90.20
55634;DHT22;41504;53.162;6.788;2022-11-11T03:53:57;11.30;90.20
55634;DHT22;41504;53.162;6.788;2022-11-11T03:56:31;11.30;90.20
55634;DHT22;41504;53.162;6.788;2022-11-11T03:58:57;11.30;90.20
55634;DHT22;41504;53.162;6.788;2022-11-11T04:01:46;11.30;90.20
55634;DHT22;41504;53.162;6.788;2022-11-11T04:04:34;11.40;90.20
55634;DHT22;41504;53.162;6.788;2022-11-11T04:07:19;11.30;90.20
55634;DHT22;41504;53.162;6.788;2022-11-11T04:10:07;11.30;90.30
55634;DHT22;41504;53.162;6.788;2022-11-11T04:12:49;11.30;90.30
55634;DHT22;41504;53.162;6.788;2022-11-11T04:15:37;11.30;90.20
55634;DHT22;41504;53.162;6.788;2022-11-11T04:18:21;11.30;90.30
55634;DHT22;41504;53.162;6.788;2022-11-11T04:21:19;11.20;90.30
55634;DHT22;41504;53.162;6.788;2022-11-11T04:24:27;11.20;90.30
55634;DHT22;41504;53.162;6.788;2022-11-11T04:27:14;11.20;90.30
55634;DHT22;41504;53.162;6.788;2022-11-11T04:29:40;11.20;90.40
55634;DHT22;41504;53.162;6.788;2022-11-11T04:32:11;11.20;90.40
55634;DHT22;41504;53.162;6.788;2022-11-11T04:35:10;11.20;90.40
55634;DHT22;41504;53.162;6.788;2022-11-11T04:37:51;11.40;90.50
55634;DHT22;41504;53.162;6.788;2022-11-11T04:40:37;11.20;90.50
55634;DHT22;41504;53.162;6.788;2022-11-11T04:43:21;11.10;90.50
55634;DHT22;41504;53.162;6.788;2022-11-11T04:45:59;11.10;90.50
55634;DHT22;41504;53.162;6.788;2022-11-11T04:48:27;11.10;90.50
55634;DHT22;41504;53.162;6.788;2022-11-11T04:50:55;11.20;90.60
55634;DHT22;41504;53.162;6.788;2022-11-11T04:53:31;11.10;90.60
55634;DHT22;41504;53.162;6.788;2022-11-11T04:56:02;11.10;90.50
55634;DHT22;41504;53.162;6.788;2022-11-11T04:58:46;11.10;90.50
55634;DHT22;41504;53.162;6.788;2022-11-11T05:01:45;11.20;90.60
55634;DHT22;41504;53.162;6.788;2022-11-11T05:04:30;11.10;90.50
55634;DHT22;41504;53.162;6.788;2022-11-11T05:06:56;11.10;90.60
55634;DHT22;41504;53.162;6.788;2022-11-11T05:09:40;11.20;90.60
55634;DHT22;41504;53.162;6.788;2022-11-11T05:12:06;11.10;90.60
55634;DHT22;41504;53.162;6.788;2022-11-11T05:14:31;11.10;90.70
55634;DHT22;41504;53.162;6.788;2022-11-11T05:17:31;11.10;90.60
55634;DHT22;41504;53.162;6.788;2022-11-11T05:20:15;11.10;90.60
55634;DHT22;41504;53.162;6.788;2022-11-11T05:23:10;11.10;90.70
55634;DHT22;41504;53.162;6.788;2022-11-11T05:25:49;11.10;90.70
55634;DHT22;41504;53.162;6.788;2022-11-11T05:28:26;11.10;90.80
55634;DHT22;41504;53.162;6.788;2022-11-11T05:30:54;11.10;90.80
55634;DHT22;41504;53.162;6.788;2022-11-11T05:33:24;11.10;90.80
55634;DHT22;41504;53.162;6.788;2022-11-11T05:36:01;11.00;90.70
55634;DHT22;41504;53.162;6.788;2022-11-11T05:38:29;11.10;90.70
55634;DHT22;41504;53.162;6.788;2022-11-11T05:41:01;11.10;90.70
55634;DHT22;41504;53.162;6.788;2022-11-11T05:43:29;11.10;90.80
55634;DHT22;41504;53.162;6.788;2022-11-11T05:46:07;11.10;90.80
55634;DHT22;41504;53.162;6.788;2022-11-11T05:48:32;11.10;90.80
55634;DHT22;41504;53.162;6.788;2022-11-11T05:51:01;10.90;90.80
55634;DHT22;41504;53.162;6.788;2022-11-11T05:53:43;11.10;90.80
55634;DHT22;41504;53.162;6.788;2022-11-11T05:56:17;11.10;90.80
55634;DHT22;41504;53.162;6.788;2022-11-11T05:58:46;11.10;90.90
55634;DHT22;41504;53.162;6.788;2022-11-11T06:01:13;11.00;90.90
55634;DHT22;41504;53.162;6.788;2022-11-11T06:03:42;11.00;90.90
55634;DHT22;41504;53.162;6.788;2022-11-11T06:06:15;11.00;91.00
55634;DHT22;41504;53.162;6.788;2022-11-11T06:08:51;11.20;91.00
55634;DHT22;41504;53.162;6.788;2022-11-11T06:11:21;11.10;91.00
55634;DHT22;41504;53.162;6.788;2022-11-11T06:13:50;11.10;91.00
55634;DHT22;41504;53.162;6.788;2022-11-11T06:16:17;11.20;90.90
55634;DHT22;41504;53.162;6.788;2022-11-11T06:18:43;11.10;90.80
55634;DHT22;41504;53.162;6.788;2022-11-11T06:21:10;11.20;90.80
55634;DHT22;41504;53.162;6.788;2022-11-11T06:26:24;11.30;90.70
55634;DHT22;41504;53.162;6.788;2022-11-11T06:28:54;11.30;90.70
55634;DHT22;41504;53.162;6.788;2022-11-11T06:31:24;11.30;91.00
55634;DHT22;41504;53.162;6.788;2022-11-11T06:33:53;11.40;90.80
55634;DHT22;41504;53.162;6.788;2022-11-11T06:36:20;11.30;90.80
55634;DHT22;41504;53.162;6.788;2022-11-11T06:38:49;11.30;90.80
55634;DHT22;41504;53.162;6.788;2022-11-11T06:41:23;11.30;90.80
55634;DHT22;41504;53.162;6.788;2022-11-11T06:43:51;11.30;90.70
55634;DHT22;41504;53.162;6.788;2022-11-11T06:46:25;11.20;90.80
55634;DHT22;41504;53.162;6.788;2022-11-11T06:48:54;11.20;90.80
55634;DHT22;41504;53.162;6.788;2022-11-11T06:56:51;11.20;90.80
55634;DHT22;41504;53.162;6.788;2022-11-11T06:59:23;11.20;90.90
55634;DHT22;41504;53.162;6.788;2022-11-11T07:01:54;11.30;90.70
55634;DHT22;41504;53.162;6.788;2022-11-11T07:04:27;11.20;90.70
55634;DHT22;41504;53.162;6.788;2022-11-11T07:06:58;11.30;90.80
55634;DHT22;41504;53.162;6.788;2022-11-11T07:09:24;11.30;90.70
55634;DHT22;41504;53.162;6.788;2022-11-11T07:11:55;11.20;90.70
55634;DHT22;41504;53.162;6.788;2022-11-11T07:14:24;11.20;90.70
55634;DHT22;41504;53.162;6.788;2022-11-11T07:16:52;11.30;90.70
55634;DHT22;41504;53.162;6.788;2022-11-11T07:19:20;11.40;90.70
55634;DHT22;41504;53.162;6.788;2022-11-11T07:21:49;11.20;90.60
55634;DHT22;41504;53.162;6.788;2022-11-11T07:24:18;11.30;90.60
55634;DHT22;41504;53.162;6.788;2022-11-11T07:26:54;11.30;90.70
55634;DHT22;41504;53.162;6.788;2022-11-11T07:29:20;11.30;90.60
55634;DHT22;41504;53.162;6.788;2022-11-11T07:32:01;11.30;90.70
55634;DHT22;41504;53.162;6.788;2022-11-11T07:34:35;11.30;90.60
55634;DHT22;41504;53.162;6.788;2022-11-11T07:37:07;11.30;90.70
55634;DHT22;41504;53.162;6.788;2022-11-11T07:39:39;11.30;90.70
55634;DHT22;41504;53.162;6.788;2022-11-11T07:42:22;11.30;90.70
55634;DHT22;41504;53.162;6.788;2022-11-11T07:45:20;11.60;90.80
55634;DHT22;41504;53.162;6.788;2022-11-11T07:48:11;11.10;90.60
55634;DHT22;41504;53.162;6.788;2022-11-11T07:50:54;11.50;90.70
55634;DHT22;41504;53.162;6.788;2022-11-11T07:53:23;11.40;90.70
55634;DHT22;41504;53.162;6.788;2022-11-11T07:56:32;11.40;90.60
55634;DHT22;41504;53.162;6.788;2022-11-11T07:58:59;11.30;90.70
55634;DHT22;41504;53.162;6.788;2022-11-11T08:01:41;11.30;90.70
55634;DHT22;41504;53.162;6.788;2022-11-11T08:04:12;11.30;90.70
55634;DHT22;41504;53.162;6.788;2022-11-11T08:06:41;11.30;90.70
55634;DHT22;41504;53.162;6.788;2022-11-11T08:09:16;11.30;90.70
55634;DHT22;41504;53.162;6.788;2022-11-11T08:11:45;11.30;90.70
55634;DHT22;41504;53.162;6.788;2022-11-11T08:14:32;11.30;90.60
55634;DHT22;41504;53.162;6.788;2022-11-11T08:17:01;11.30;90.60
55634;DHT22;41504;53.162;6.788;2022-11-11T08:19:36;11.30;90.60
55634;DHT22;41504;53.162;6.788;2022-11-11T08:22:05;11.40;90.70
55634;DHT22;41504;53.162;6.788;2022-11-11T08:24:42;11.30;90.70
55634;DHT22;41504;53.162;6.788;2022-11-11T08:27:11;11.40;90.80
55634;DHT22;41504;53.162;6.788;2022-11-11T08:29:40;11.40;90.80
55634;DHT22;41504;53.162;6.788;2022-11-11T08:32:21;11.40;90.70
55634;DHT22;41504;53.162;6.788;2022-11-11T08:35:07;11.40;90.60
55634;DHT22;41504;53.162;6.788;2022-11-11T08:40:51;11.40;90.60
55634;DHT22;41504;53.162;6.788;2022-11-11T08:43:18;11.40;90.60
55634;DHT22;41504;53.162;6.788;2022-11-11T08:45:44;11.50;90.60
55634;DHT22;41504;53.162;6.788;2022-11-11T08:48:13;11.40;90.60
55634;DHT22;41504;53.162;6.788;2022-11-11T08:50:39;11.50;90.60
55634;DHT22;41504;53.162;6.788;2022-11-11T08:53:07;11.50;90.60
55634;DHT22;41504;53.162;6.788;2022-11-11T08:55:34;11.50;90.60
55634;DHT22;41504;53.162;6.788;2022-11-11T08:58:01;11.50;90.60
55634;DHT22;41504;53.162;6.788;2022-11-11T09:00:27;11.60;90.60
55634;DHT22;41504;53.162;6.788;2022-11-11T09:02:53;11.50;90.60
55634;DHT22;41504;53.162;6.788;2022-11-11T09:05:20;11.50;90.90
55634;DHT22;41504;53.162;6.788;2022-11-11T09:07:45;11.40;90.70
55634;DHT22;41504;53.162;6.788;2022-11-11T09:10:11;11.50;90.60
55634;DHT22;41504;53.162;6.788;2022-11-11T09:12:37;11.50;90.60
55634;DHT22;41504;53.162;6.788;2022-11-11T09:15:03;11.50;90.60
55634;DHT22;41504;53.162;6.788;2022-11-11T09:17:29;11.50;90.60
55634;DHT22;41504;53.162;6.788;2022-11-11T09:19:55;11.50;90.50
55634;DHT22;41504;53.162;6.788;2022-11-11T09:22:21;11.50;90.60
55634;DHT22;41504;53.162;6.788;2022-11-11T09:24:47;11.50;90.60
55634;DHT22;41504;53.162;6.788;2022-11-11T09:27:13;11.50;90.60
55634;DHT22;41504;53.162;6.788;2022-11-11T09:29:39;11.50;90.60
55634;DHT22;41504;53.162;6.788;2022-11-11T09:32:05;11.60;90.50
55634;DHT22;41504;53.162;6.788;2022-11-11T09:34:31;11.60;90.50
55634;DHT22;41504;53.162;6.788;2022-11-11T09:36:56;11.60;90.50
55634;DHT22;41504;53.162;6.788;2022-11-11T09:39:22;11.60;90.50
55634;DHT22;41504;53.162;6.788;2022-11-11T09:44:58;11.60;90.50
55634;DHT22;41504;53.162;6.788;2022-11-11T09:47:58;11.60;90.40
55634;DHT22;41504;53.162;6.788;2022-11-11T09:50:30;11.70;90.30
55634;DHT22;41504;53.162;6.788;2022-11-11T09:53:06;11.60;90.30
55634;DHT22;41504;53.162;6.788;2022-11-11T09:55:41;11.60;90.30
55634;DHT22;41504;53.162;6.788;2022-11-11T09:58:43;11.60;90.30
55634;DHT22;41504;53.162;6.788;2022-11-11T10:01:11;11.60;90.30
55634;DHT22;41504;53.162;6.788;2022-11-11T10:03:46;11.60;90.30
55634;DHT22;41504;53.162;6.788;2022-11-11T10:14:14;11.60;90.40
55634;DHT22;41504;53.162;6.788;2022-11-11T10:19:29;11.60;90.30
55634;DHT22;41504;53.162;6.788;2022-11-11T10:22:01;11.60;90.30
55634;DHT22;41504;53.162;6.788;2022-11-11T10:24:41;11.60;90.20
55634;DHT22;41504;53.162;6.788;2022-11-11T10:27:20;11.60;90.10
55634;DHT22;41504;53.162;6.788;2022-11-11T10:29:49;11.70;90.10
55634;DHT22;41504;53.162;6.788;2022-11-11T10:32:22;11.70;90.10
55634;DHT22;41504;53.162;6.788;2022-11-11T10:34:50;11.60;90.20
55634;DHT22;41504;53.162;6.788;2022-11-11T10:37:24;11.60;90.20
55634;DHT22;41504;53.162;6.788;2022-11-11T10:42:24;11.70;90.20
55634;DHT22;41504;53.162;6.788;2022-11-11T10:44:59;11.70;90.20
55634;DHT22;41504;53.162;6.788;2022-11-11T10:47:51;11.70;90.20
55634;DHT22;41504;53.162;6.788;2022-11-11T10:50:34;11.70;90.20
55634;DHT22;41504;53.162;6.788;2022-11-11T11:01:42;11.80;90.00
55634;DHT22;41504;53.162;6.788;2022-11-11T11:04:36;11.80;89.80
55634;DHT22;41504;53.162;6.788;2022-11-11T11:07:05;11.80;89.70
55634;DHT22;41504;53.162;6.788;2022-11-11T11:12:09;11.80;89.60
55634;DHT22;41504;53.162;6.788;2022-11-11T11:14:40;11.90;89.80
55634;DHT22;41504;53.162;6.788;2022-11-11T11:17:16;11.90;89.70
55634;DHT22;41504;53.162;6.788;2022-11-11T11:22:53;11.90;89.50
55634;DHT22;41504;53.162;6.788;2022-11-11T11:25:21;11.90;89.30
55634;DHT22;41504;53.162;6.788;2022-11-11T11:27:52;11.90;89.30
55634;DHT22;41504;53.162;6.788;2022-11-11T11:30:21;11.90;89.30
55634;DHT22;41504;53.162;6.788;2022-11-11T11:33:01;11.90;89.40
55634;DHT22;41504;53.162;6.788;2022-11-11T11:35:42;12.00;89.50
55634;DHT22;41504;53.162;6.788;2022-11-11T11:38:12;12.00;88.90
55634;DHT22;41504;53.162;6.788;2022-11-11T11:43:35;12.10;88.40
55634;DHT22;41504;53.162;6.788;2022-11-11T11:46:36;12.10;88.40
55634;DHT22;41504;53.162;6.788;2022-11-11T11:54:57;12.10;89.10
55634;DHT22;41504;53.162;6.788;2022-11-11T12:00:11;12.10;89.30
55634;DHT22;41504;53.162;6.788;2022-11-11T12:03:04;12.20;89.20
55634;DHT22;41504;53.162;6.788;2022-11-11T12:11:17;12.10;88.00
55634;DHT22;41504;53.162;6.788;2022-11-11T12:14:08;12.10;88.40
55634;DHT22;41504;53.162;6.788;2022-11-11T12:16:53;12.10;88.50
55634;DHT22;41504;53.162;6.788;2022-11-11T12:22:24;12.00;88.70
55634;DHT22;41504;53.162;6.788;2022-11-11T12:30:52;12.00;88.60
55634;DHT22;41504;53.162;6.788;2022-11-11T12:58:29;11.90;88.50
55634;DHT22;41504;53.162;6.788;2022-11-11T13:01:09;11.90;88.70
55634;DHT22;41504;53.162;6.788;2022-11-11T13:07:02;12.00;88.80
55634;DHT22;41504;53.162;6.788;2022-11-11T13:10:11;12.00;88.70
55634;DHT22;41504;53.162;6.788;2022-11-11T13:15:23;11.90;88.70
55634;DHT22;41504;53.162;6.788;2022-11-11T13:17:50;12.00;88.40
55634;DHT22;41504;53.162;6.788;2022-11-11T13:20:19;11.90;88.50
55634;DHT22;41504;53.162;6.788;2022-11-11T13:22:49;12.00;88.30
55634;DHT22;41504;53.162;6.788;2022-11-11T13:25:22;11.90;89.00
55634;DHT22;41504;53.162;6.788;2022-11-11T13:28:00;11.90;88.50
55634;DHT22;41504;53.162;6.788;2022-11-11T13:33:10;11.90;88.70
55634;DHT22;41504;53.162;6.788;2022-11-11T13:35:42;11.90;88.30
55634;DHT22;41504;53.162;6.788;2022-11-11T13:41:00;12.00;88.70
55634;DHT22;41504;53.162;6.788;2022-11-11T13:43:39;11.80;88.90
55634;DHT22;41504;53.162;6.788;2022-11-11T13:48:56;11.80;88.80
55634;DHT22;41504;53.162;6.788;2022-11-11T13:52:02;11.80;89.00
55634;DHT22;41504;53.162;6.788;2022-11-11T13:54:35;11.80;88.80
55634;DHT22;41504;53.162;6.788;2022-11-11T13:59:58;11.80;89.30
55634;DHT22;41504;53.162;6.788;2022-11-11T14:02:28;11.80;89.40
55634;DHT22;41504;53.162;6.788;2022-11-11T14:10:07;11.80;89.40
55634;DHT22;41504;53.162;6.788;2022-11-11T14:12:38;11.80;89.50
55634;DHT22;41504;53.162;6.788;2022-11-11T14:25:44;11.80;89.80
55634;DHT22;41504;53.162;6.788;2022-11-11T14:30:45;11.80;89.70
55634;DHT22;41504;53.162;6.788;2022-11-11T14:36:09;11.80;89.50
55634;DHT22;41504;53.162;6.788;2022-11-11T14:38:43;11.80;89.40
55634;DHT22;41504;53.162;6.788;2022-11-11T14:41:42;11.80;89.40
55634;DHT22;41504;53.162;6.788;2022-11-11T15:00:19;11.80;89.70
55634;DHT22;41504;53.162;6.788;2022-11-11T15:05:58;11.80;89.70
55634;DHT22;41504;53.162;6.788;2022-11-11T15:09:00;11.80;89.70
55634;DHT22;41504;53.162;6.788;2022-11-11T15:18:03;11.80;89.60
55634;DHT22;41504;53.162;6.788;2022-11-11T15:26:05;11.70;89.80
55634;DHT22;41504;53.162;6.788;2022-11-11T15:28:43;11.80;90.00
55634;DHT22;41504;53.162;6.788;2022-11-11T15:39:44;11.70;90.00
55634;DHT22;41504;53.162;6.788;2022-11-11T15:42:32;11.70;90.00
55634;DHT22;41504;53.162;6.788;2022-11-11T15:45:00;11.80;90.10
55634;DHT22;41504;53.162;6.788;2022-11-11T15:47:29;11.80;90.10
55634;DHT22;41504;53.162;6.788;2022-11-11T15:49:59;11.80;90.10
55634;DHT22;41504;53.162;6.788;2022-11-11T15:52:31;11.70;90.10
55634;DHT22;41504;53.162;6.788;2022-11-11T15:54:58;11.80;90.20
55634;DHT22;41504;53.162;6.788;2022-11-11T15:59:52;11.70;90.20
55634;DHT22;41504;53.162;6.788;2022-11-11T16:02:25;11.70;90.20
55634;DHT22;41504;53.162;6.788;2022-11-11T16:07:26;11.80;90.30
55634;DHT22;41504;53.162;6.788;2022-11-11T16:09:58;11.80;90.20
55634;DHT22;41504;53.162;6.788;2022-11-11T16:12:32;11.70;90.30
55634;DHT22;41504;53.162;6.788;2022-11-11T16:15:04;11.70;90.30
55634;DHT22;41504;53.162;6.788;2022-11-11T16:17:38;11.70;90.40
55634;DHT22;41504;53.162;6.788;2022-11-11T16:20:13;11.80;90.40
55634;DHT22;41504;53.162;6.788;2022-11-11T16:22:40;11.70;90.40
55634;DHT22;41504;53.162;6.788;2022-11-11T16:25:18;11.80;90.40
55634;DHT22;41504;53.162;6.788;2022-11-11T16:27:45;11.80;90.40
55634;DHT22;41504;53.162;6.788;2022-11-11T16:30:37;11.80;90.40
55634;DHT22;41504;53.162;6.788;2022-11-11T16:33:03;11.80;90.40
55634;DHT22;41504;53.162;6.788;2022-11-11T16:35:37;11.80;90.40
55634;DHT22;41504;53.162;6.788;2022-11-11T16:38:07;11.90;90.40
55634;DHT22;41504;53.162;6.788;2022-11-11T16:40:34;11.80;90.40
55634;DHT22;41504;53.162;6.788;2022-11-11T16:43:14;11.80;90.40
55634;DHT22;41504;53.162;6.788;2022-11-11T16:45:48;11.90;90.40
55634;DHT22;41504;53.162;6.788;2022-11-11T16:51:08;11.90;90.30
55634;DHT22;41504;53.162;6.788;2022-11-11T16:53:42;11.80;90.30
55634;DHT22;41504;53.162;6.788;2022-11-11T16:56:29;11.80;90.30
55634;DHT22;41504;53.162;6.788;2022-11-11T16:59:10;11.80;90.30
55634;DHT22;41504;53.162;6.788;2022-11-11T17:01:43;11.80;90.30
55634;DHT22;41504;53.162;6.788;2022-11-11T17:04:09;11.80;90.20
55634;DHT22;41504;53.162;6.788;2022-11-11T17:06:56;11.80;90.20
55634;DHT22;41504;53.162;6.788;2022-11-11T17:11:55;11.80;90.00
55634;DHT22;41504;53.162;6.788;2022-11-11T17:14:21;11.70;90.00
55634;DHT22;41504;53.162;6.788;2022-11-11T17:16:47;11.70;90.00
55634;DHT22;41504;53.162;6.788;2022-11-11T17:19:13;11.80;90.00
55634;DHT22;41504;53.162;6.788;2022-11-11T17:21:39;11.70;90.00
55634;DHT22;41504;53.162;6.788;2022-11-11T17:24:04;11.70;90.00
55634;DHT22;41504;53.162;6.788;2022-11-11T17:26:30;11.70;90.00
55634;DHT22;41504;53.162;6.788;2022-11-11T17:28:56;11.70;90.00
55634;DHT22;41504;53.162;6.788;2022-11-11T17:31:25;11.70;90.00
55634;DHT22;41504;53.162;6.788;2022-11-11T17:33:51;11.70;90.30
55634;DHT22;41504;53.162;6.788;2022-11-11T17:36:17;11.70;90.10
55634;DHT22;41504;53.162;6.788;2022-11-11T17:38:42;11.70;90.30
55634;DHT22;41504;53.162;6.788;2022-11-11T17:41:12;11.80;90.10
55634;DHT22;41504;53.162;6.788;2022-11-11T17:43:41;11.90;90.10
55634;DHT22;41504;53.162;6.788;2022-11-11T17:46:10;11.90;89.70
55634;DHT22;41504;53.162;6.788;2022-11-11T17:48:36;11.80;89.50
55634;DHT22;41504;53.162;6.788;2022-11-11T17:51:04;11.90;89.80
55634;DHT22;41504;53.162;6.788;2022-11-11T17:53:35;11.90;89.70
55634;DHT22;41504;53.162;6.788;2022-11-11T17:56:04;11.90;89.90
55634;DHT22;41504;53.162;6.788;2022-11-11T17:58:36;11.90;89.80
55634;DHT22;41504;53.162;6.788;2022-11-11T18:01:20;11.80;89.60
55634;DHT22;41504;53.162;6.788;2022-11-11T18:03:46;11.80;89.60
55634;DHT22;41504;53.162;6.788;2022-11-11T18:06:12;11.80;89.80
55634;DHT22;41504;53.162;6.788;2022-11-11T18:08:38;11.90;89.50
55634;DHT22;41504;53.162;6.788;2022-11-11T18:11:07;11.80;89.50
55634;DHT22;41504;53.162;6.788;2022-11-11T18:13:33;11.70;89.60
55634;DHT22;41504;53.162;6.788;2022-11-11T18:15:59;11.70;89.80
55634;DHT22;41504;53.162;6.788;2022-11-11T18:18:27;11.70;89.90
55634;DHT22;41504;53.162;6.788;2022-11-11T18:20:58;11.60;90.00
55634;DHT22;41504;53.162;6.788;2022-11-11T18:23:24;11.70;90.00
55634;DHT22;41504;53.162;6.788;2022-11-11T18:26:03;11.70;90.10
55634;DHT22;41504;53.162;6.788;2022-11-11T18:28:34;11.60;90.10
55634;DHT22;41504;53.162;6.788;2022-11-11T18:31:04;11.60;90.20
55634;DHT22;41504;53.162;6.788;2022-11-11T18:33:31;11.60;90.20
55634;DHT22;41504;53.162;6.788;2022-11-11T18:36:06;11.60;90.20
55634;DHT22;41504;53.162;6.788;2022-11-11T18:38:33;11.50;90.20
55634;DHT22;41504;53.162;6.788;2022-11-11T18:43:33;11.60;90.30
55634;DHT22;41504;53.162;6.788;2022-11-11T18:46:04;11.60;90.20
55634;DHT22;41504;53.162;6.788;2022-11-11T18:48:30;11.60;90.20
55634;DHT22;41504;53.162;6.788;2022-11-11T18:50:56;11.50;90.30
55634;DHT22;41504;53.162;6.788;2022-11-11T18:53:21;11.50;90.40
55634;DHT22;41504;53.162;6.788;2022-11-11T18:55:47;11.40;90.50
55634;DHT22;41504;53.162;6.788;2022-11-11T18:58:13;11.40;90.50
55634;DHT22;41504;53.162;6.788;2022-11-11T19:00:38;11.30;90.50
55634;DHT22;41504;53.162;6.788;2022-11-11T19:03:05;11.30;90.60
55634;DHT22;41504;53.162;6.788;2022-11-11T19:05:31;11.20;90.80
55634;DHT22;41504;53.162;6.788;2022-11-11T19:07:57;11.30;90.60
55634;DHT22;41504;53.162;6.788;2022-11-11T19:10:23;11.20;90.60
55634;DHT22;41504;53.162;6.788;2022-11-11T19:12:49;11.20;90.60
55634;DHT22;41504;53.162;6.788;2022-11-11T19:15:15;11.10;90.60
55634;DHT22;41504;53.162;6.788;2022-11-11T19:17:41;11.10;90.60
55634;DHT22;41504;53.162;6.788;2022-11-11T19:20:10;11.00;90.60
55634;DHT22;41504;53.162;6.788;2022-11-11T19:22:35;10.90;90.60
55634;DHT22;41504;53.162;6.788;2022-11-11T19:25:01;10.90;90.70
55634;DHT22;41504;53.162;6.788;2022-11-11T19:27:31;10.80;90.80
55634;DHT22;41504;53.162;6.788;2022-11-11T19:29:56;10.70;90.90
55634;DHT22;41504;53.162;6.788;2022-11-11T19:32:22;10.60;90.90
55634;DHT22;41504;53.162;6.788;2022-11-11T19:34:48;10.60;90.90
55634;DHT22;41504;53.162;6.788;2022-11-11T19:37:13;10.60;91.00
55634;DHT22;41504;53.162;6.788;2022-11-11T19:39:44;10.50;91.00
55634;DHT22;41504;53.162;6.788;2022-11-11T19:42:09;10.40;91.00
55634;DHT22;41504;53.162;6.788;2022-11-11T19:44:35;10.40;91.10
55634;DHT22;41504;53.162;6.788;2022-11-11T19:47:01;10.40;91.20
55634;DHT22;41504;53.162;6.788;2022-11-11T19:49:26;10.30;91.20
55634;DHT22;41504;53.162;6.788;2022-11-11T19:51:52;10.30;91.20